Terminal Aerodrome Forecast
Issued by NWS

Home | Current Version | Previous Version | Text Only | Print | Product List | Glossary On
Versions: 1 2 3 4 5 6 7 8 9 10 11 12 13 14 15 16 17 18
000
FTUS44 KLZK 310520
TAFBPK
TAF
KBPK 310520Z 3106/0106 VRB04KT P6SM FEW050 BKN250
     FM311200 05005KT P6SM VCSH SCT025 BKN050
     FM311700 02007KT P6SM VCTS BKN040CB OVC100=

USA.gov is the U.S. government's official web portal to all federal, state and local government web resources and services.